Time;durP1;ratioP1;P1;durP2;ratioP2;P2;SDS_P1;SDS_P2;PMS_P1;PMS_P2;Temp;Humidity;BMP_temperature;BMP_pressure;BME280_temperature;BME280_humidity;BME280_pressure;Samples;Min_cycle;Max_cycle;Signal;HPM_P1;HPM_P2
2021/06/13 00:00:44;;;;;;;14.13;9.07;;;;;;;;;;1497407;39;20482;-61
2021/06/13 00:01:45;;;;;;;11.88;8.57;;;;;;;;;;1497397;39;20032;-61
2021/06/13 00:02:47;;;;;;;13.48;8.30;;;;;;;;;;1497266;39;20380;-61
2021/06/13 00:03:48;;;;;;;12.20;8.90;;;;;;;;;;1497410;39;20031;-61
2021/06/13 00:04:50;;;;;;;13.27;8.77;;;;;;;;;;1497500;39;20179;-61
2021/06/13 00:05:50;;;;;;;12.30;8.77;;;;;;;;;;1497344;39;20034;-61
2021/06/13 00:06:53;;;;;;;13.15;8.77;;;;;;;;;;1497252;39;20050;-61
2021/06/13 00:07:54;;;;;;;13.32;9.73;;;;;;;;;;1497144;39;20388;-61
2021/06/13 00:08:55;;;;;;;12.18;9.07;;;;;;;;;;1497215;39;20027;-61
2021/06/13 00:09:57;;;;;;;15.20;8.85;;;;;;;;;;1497195;39;20034;-61
2021/06/13 00:11:01;;;;;;;15.02;8.82;;;;;;;;;;1492541;39;20031;-61
2021/06/13 00:12:02;;;;;;;11.43;8.57;;;;;;;;;;1492548;39;20399;-61
2021/06/13 00:13:03;;;;;;;11.85;8.88;;;;;;;;;;1497362;39;20031;-61
2021/06/13 00:14:05;;;;;;;12.57;8.68;;;;;;;;;;1497318;39;20024;-61
2021/06/13 00:15:10;;;;;;;13.77;8.85;;;;;;;;;;1496889;39;20034;-61
2021/06/13 00:16:12;;;;;;;13.00;8.90;;;;;;;;;;1497373;39;20031;-61
2021/06/13 00:17:16;;;;;;;13.30;9.43;;;;;;;;;;1497502;39;20039;-61
2021/06/13 00:18:18;;;;;;;14.43;9.38;;;;;;;;;;1497062;39;20070;-61
2021/06/13 00:19:19;;;;;;;12.77;9.38;;;;;;;;;;1497161;39;20079;-61
2021/06/13 00:20:24;;;;;;;12.85;8.60;;;;;;;;;;1497150;39;20026;-61
2021/06/13 00:21:25;;;;;;;11.98;9.27;;;;;;;;;;1497229;39;20034;-61
2021/06/13 00:22:26;;;;;;;14.25;9.20;;;;;;;;;;1497133;39;20375;-61
2021/06/13 00:23:28;;;;;;;13.85;9.32;;;;;;;;;;1497097;39;20034;-61
2021/06/13 00:24:29;;;;;;;10.48;8.93;;;;;;;;;;1497210;39;20032;-61
2021/06/13 00:25:31;;;;;;;14.15;9.82;;;;;;;;;;1497286;39;20028;-61
2021/06/13 00:26:32;;;;;;;13.38;8.90;;;;;;;;;;1497254;39;20096;-61
2021/06/13 00:27:34;;;;;;;14.45;9.13;;;;;;;;;;1497094;39;20043;-61
2021/06/13 00:28:35;;;;;;;15.43;9.63;;;;;;;;;;1497245;39;20032;-61
2021/06/13 00:29:36;;;;;;;13.25;8.80;;;;;;;;;;1497432;39;20096;-61
2021/06/13 00:30:37;;;;;;;13.30;9.43;;;;;;;;;;1497091;39;20059;-61
2021/06/13 00:31:39;;;;;;;13.57;9.10;;;;;;;;;;1497322;39;20034;-61
2021/06/13 00:32:40;;;;;;;16.90;9.93;;;;;;;;;;1497204;39;20027;-61
2021/06/13 00:33:41;;;;;;;12.35;9.32;;;;;;;;;;1497355;39;20097;-61
2021/06/13 00:34:43;;;;;;;14.13;9.80;;;;;;;;;;1497368;39;20034;-61
2021/06/13 00:35:44;;;;;;;14.35;9.68;;;;;;;;;;1497116;39;20308;-61
2021/06/13 00:36:45;;;;;;;13.20;9.65;;;;;;;;;;1497300;39;20023;-61
2021/06/13 00:37:46;;;;;;;13.85;9.82;;;;;;;;;;1497002;39;20054;-61
2021/06/13 00:38:47;;;;;;;14.55;9.77;;;;;;;;;;1497059;39;20314;-61
2021/06/13 00:39:48;;;;;;;15.82;9.32;;;;;;;;;;1497085;39;20027;-60
2021/06/13 00:40:51;;;;;;;14.23;9.40;;;;;;;;;;1497198;39;20030;-61
2021/06/13 00:41:52;;;;;;;13.40;9.50;;;;;;;;;;1497059;39;20038;-61
2021/06/13 00:42:54;;;;;;;13.80;9.93;;;;;;;;;;1497053;39;20026;-61
2021/06/13 00:43:56;;;;;;;13.98;9.80;;;;;;;;;;1497299;39;20144;-61
2021/06/13 00:44:57;;;;;;;14.35;10.02;;;;;;;;;;1497254;39;20139;-61
2021/06/13 00:45:58;;;;;;;17.48;9.50;;;;;;;;;;1497198;39;20394;-61
2021/06/13 00:46:59;;;;;;;14.07;9.65;;;;;;;;;;1496972;39;20038;-61
2021/06/13 00:48:01;;;;;;;14.77;9.50;;;;;;;;;;1497016;39;20039;-61
2021/06/13 00:49:02;;;;;;;14.10;9.50;;;;;;;;;;1496980;39;20023;-61
2021/06/13 00:50:04;;;;;;;16.05;9.65;;;;;;;;;;1497298;39;20034;-61
2021/06/13 00:51:05;;;;;;;14.98;9.25;;;;;;;;;;1497044;39;20409;-61
2021/06/13 00:52:07;;;;;;;16.98;10.02;;;;;;;;;;1497132;39;20073;-61
2021/06/13 00:53:09;;;;;;;13.82;10.02;;;;;;;;;;1496977;39;20401;-61
2021/06/13 00:54:11;;;;;;;18.50;9.57;;;;;;;;;;1497142;39;20090;-61
2021/06/13 00:55:12;;;;;;;13.15;9.40;;;;;;;;;;1497270;39;20039;-61
2021/06/13 00:56:15;;;;;;;14.65;9.55;;;;;;;;;;1497198;39;20043;-61
2021/06/13 00:57:16;;;;;;;16.52;9.50;;;;;;;;;;1497005;39;20026;-61
2021/06/13 00:58:17;;;;;;;17.52;10.40;;;;;;;;;;1497176;39;20039;-61
2021/06/13 00:59:18;;;;;;;13.82;10.02;;;;;;;;;;1497012;39;20089;-61
2021/06/13 01:00:22;;;;;;;15.63;10.23;;;;;;;;;;1497327;39;20096;-61
2021/06/13 01:01:22;;;;;;;14.35;9.48;;;;;;;;;;1497165;39;20034;-61
2021/06/13 01:02:24;;;;;;;14.43;10.05;;;;;;;;;;1497155;39;20034;-61
2021/06/13 01:03:25;;;;;;;15.32;9.45;;;;;;;;;;1497164;39;20031;-61
2021/06/13 01:04:27;;;;;;;18.17;11.27;;;;;;;;;;1497276;39;20295;-61
2021/06/13 01:05:29;;;;;;;14.52;10.13;;;;;;;;;;1497027;39;20043;-61
2021/06/13 01:06:38;;;;;;;15.68;10.15;;;;;;;;;;1496992;39;20294;-61
2021/06/13 01:07:46;;;;;;;14.60;9.68;;;;;;;;;;1497143;39;20039;-61
2021/06/13 01:08:51;;;;;;;16.75;11.25;;;;;;;;;;1496977;39;20031;-61
2021/06/13 01:09:58;;;;;;;14.80;10.23;;;;;;;;;;1496998;39;20058;-62
2021/06/13 01:11:15;;;;;;;18.42;11.07;;;;;;;;;;1497243;39;20035;-61
2021/06/13 01:12:24;;;;;;;13.48;9.80;;;;;;;;;;1496989;39;20033;-63
2021/06/13 01:13:32;;;;;;;16.90;10.88;;;;;;;;;;1497171;39;20112;-61
2021/06/13 01:14:38;;;;;;;14.85;9.98;;;;;;;;;;1497112;39;20100;-61
2021/06/13 01:15:45;;;;;;;18.85;10.88;;;;;;;;;;1497164;39;20032;-61
2021/06/13 01:16:49;;;;;;;17.75;11.00;;;;;;;;;;1497017;39;20306;-61
2021/06/13 01:17:55;;;;;;;16.73;10.68;;;;;;;;;;1497240;39;20043;-61
2021/06/13 01:19:01;;;;;;;14.85;10.57;;;;;;;;;;1497006;39;20390;-62
2021/06/13 01:20:17;;;;;;;16.13;10.38;;;;;;;;;;1497199;39;20031;-62
2021/06/13 01:21:22;;;;;;;16.52;10.55;;;;;;;;;;1496967;39;20279;-61
2021/06/13 01:22:41;;;;;;;13.93;10.52;;;;;;;;;;1497146;39;20024;-61
2021/06/13 01:24:09;;;;;;;13.88;9.85;;;;;;;;;;1497249;39;20035;-61
2021/06/13 01:25:25;;;;;;;14.05;10.32;;;;;;;;;;1487262;39;20024;-61
2021/06/13 01:26:58;;;;;;;15.10;9.98;;;;;;;;;;1496815;39;20036;-61
2021/06/13 01:28:15;;;;;;;13.73;9.85;;;;;;;;;;1497006;39;20075;-61
2021/06/13 01:29:20;;;;;;;13.95;10.15;;;;;;;;;;1496958;39;20027;-60
2021/06/13 01:30:23;;;;;;;15.48;10.00;;;;;;;;;;1496949;39;20051;-61
2021/06/13 01:31:27;;;;;;;15.27;9.90;;;;;;;;;;1496869;39;20306;-62
2021/06/13 01:32:31;;;;;;;14.48;9.73;;;;;;;;;;1496923;39;20390;-61
2021/06/13 01:33:33;;;;;;;15.18;10.38;;;;;;;;;;1496934;39;20397;-61
2021/06/13 01:34:38;;;;;;;13.75;10.55;;;;;;;;;;1497072;39;20031;-61
2021/06/13 01:35:41;;;;;;;14.52;9.55;;;;;;;;;;1496894;39;20031;-61
2021/06/13 01:36:46;;;;;;;15.75;10.07;;;;;;;;;;1496987;39;20031;-61
2021/06/13 01:37:51;;;;;;;17.40;10.07;;;;;;;;;;1496819;39;20388;-61
2021/06/13 01:38:54;;;;;;;13.65;10.07;;;;;;;;;;1497198;39;20036;-61
2021/06/13 01:39:59;;;;;;;16.15;10.60;;;;;;;;;;1496852;39;20031;-61
2021/06/13 01:41:05;;;;;;;16.73;10.55;;;;;;;;;;1497060;39;20023;-61
2021/06/13 01:42:08;;;;;;;14.75;10.25;;;;;;;;;;1496886;39;20027;-61
2021/06/13 01:43:12;;;;;;;14.25;10.10;;;;;;;;;;1496903;39;20279;-61
2021/06/13 01:44:13;;;;;;;16.65;10.77;;;;;;;;;;1496855;39;20111;-61
2021/06/13 01:45:20;;;;;;;15.90;10.40;;;;;;;;;;1496989;39;20396;-60
2021/06/13 01:46:22;;;;;;;15.73;10.60;;;;;;;;;;1496851;39;20071;-61
2021/06/13 01:47:25;;;;;;;15.88;11.23;;;;;;;;;;1497060;39;20039;-61
2021/06/13 01:48:26;;;;;;;15.50;10.10;;;;;;;;;;1496884;39;20042;-61
2021/06/13 01:49:29;;;;;;;14.65;10.45;;;;;;;;;;1496975;39;20032;-61
2021/06/13 01:50:30;;;;;;;16.10;10.85;;;;;;;;;;1496884;39;20291;-61
2021/06/13 01:51:32;;;;;;;18.15;11.10;;;;;;;;;;1496973;39;20434;-61
2021/06/13 01:52:34;;;;;;;17.10;10.98;;;;;;;;;;1496815;39;20402;-61
2021/06/13 01:53:42;;;;;;;18.27;11.65;;;;;;;;;;1496852;39;20455;-61
2021/06/13 01:54:43;;;;;;;15.18;10.57;;;;;;;;;;1497016;39;20035;-61
2021/06/13 01:55:45;;;;;;;17.35;11.60;;;;;;;;;;1497001;39;20103;-61
2021/06/13 01:56:53;;;;;;;16.20;10.40;;;;;;;;;;1497196;39;20042;-61
2021/06/13 01:57:56;;;;;;;18.10;10.90;;;;;;;;;;1496752;39;20040;-61
2021/06/13 01:58:58;;;;;;;16.08;10.85;;;;;;;;;;1496924;39;20113;-61
2021/06/13 02:00:01;;;;;;;15.55;10.75;;;;;;;;;;1496967;39;20028;-61
2021/06/13 02:01:06;;;;;;;16.38;10.98;;;;;;;;;;1496992;39;20031;-61
2021/06/13 02:02:08;;;;;;;15.43;11.10;;;;;;;;;;1496845;39;20034;-60
2021/06/13 02:03:10;;;;;;;15.43;10.30;;;;;;;;;;1496946;39;20020;-61
2021/06/13 02:04:12;;;;;;;16.02;10.38;;;;;;;;;;1496868;39;20124;-61
2021/06/13 02:05:15;;;;;;;17.25;11.00;;;;;;;;;;1496929;39;20152;-61
2021/06/13 02:06:18;;;;;;;19.42;11.05;;;;;;;;;;1497053;39;20089;-61
2021/06/13 02:07:21;;;;;;;18.42;11.77;;;;;;;;;;1497071;39;20355;-61
2021/06/13 02:08:22;;;;;;;15.52;10.93;;;;;;;;;;1496944;39;20047;-60
2021/06/13 02:09:24;;;;;;;17.10;10.80;;;;;;;;;;1496823;39;20031;-61
2021/06/13 02:10:27;;;;;;;18.33;11.25;;;;;;;;;;1496832;39;20031;-61
2021/06/13 02:11:29;;;;;;;17.83;11.23;;;;;;;;;;1496850;39;20079;-60
2021/06/13 02:12:31;;;;;;;16.48;10.95;;;;;;;;;;1496861;39;20031;-61
2021/06/13 02:13:34;;;;;;;16.35;11.30;;;;;;;;;;1496853;39;20039;-60
2021/06/13 02:14:36;;;;;;;18.02;12.05;;;;;;;;;;1496833;39;20112;-61
2021/06/13 02:15:38;;;;;;;17.45;11.20;;;;;;;;;;1496905;39;20023;-60
2021/06/13 02:16:43;;;;;;;17.83;11.45;;;;;;;;;;1496950;39;20028;-61
2021/06/13 02:17:47;;;;;;;15.63;11.25;;;;;;;;;;1496803;39;20038;-61
2021/06/13 02:18:49;;;;;;;17.55;11.73;;;;;;;;;;1496952;39;20052;-60
2021/06/13 02:19:51;;;;;;;17.02;11.10;;;;;;;;;;1496821;39;20140;-61
2021/06/13 02:20:52;;;;;;;15.13;10.85;;;;;;;;;;1496822;39;20398;-61
2021/06/13 02:21:55;;;;;;;16.13;11.23;;;;;;;;;;1497015;39;20034;-60
2021/06/13 02:22:57;;;;;;;16.52;11.00;;;;;;;;;;1496794;39;20272;-61
2021/06/13 02:23:58;;;;;;;18.40;11.05;;;;;;;;;;1496753;39;20311;-61
2021/06/13 02:25:00;;;;;;;16.55;11.00;;;;;;;;;;1496737;39;20031;-61
2021/06/13 02:26:01;;;;;;;18.30;11.48;;;;;;;;;;1496791;39;20386;-61
2021/06/13 02:27:03;;;;;;;16.98;11.15;;;;;;;;;;1496803;39;20031;-61
2021/06/13 02:28:05;;;;;;;16.98;11.43;;;;;;;;;;1496841;39;20042;-60
2021/06/13 02:29:07;;;;;;;17.20;11.43;;;;;;;;;;1496864;39;20027;-60
2021/06/13 02:30:11;;;;;;;19.65;11.93;;;;;;;;;;1496899;39;20028;-61
2021/06/13 02:31:14;;;;;;;16.60;11.48;;;;;;;;;;1496678;39;20351;-61
2021/06/13 02:32:17;;;;;;;15.27;10.30;;;;;;;;;;1496627;39;20383;-61
2021/06/13 02:33:19;;;;;;;17.60;11.88;;;;;;;;;;1496885;39;20031;-61
2021/06/13 02:34:22;;;;;;;16.98;11.55;;;;;;;;;;1496612;39;20298;-61
2021/06/13 02:35:24;;;;;;;18.67;11.27;;;;;;;;;;1496891;39;20027;-61
2021/06/13 02:36:27;;;;;;;15.63;10.88;;;;;;;;;;1496824;39;20049;-61
2021/06/13 02:37:30;;;;;;;20.33;11.82;;;;;;;;;;1496713;39;20251;-60
2021/06/13 02:38:32;;;;;;;16.15;11.45;;;;;;;;;;1497069;39;20125;-61
2021/06/13 02:39:34;;;;;;;16.35;10.63;;;;;;;;;;1497573;39;20043;-61
2021/06/13 02:40:35;;;;;;;20.08;11.05;;;;;;;;;;1497354;39;20027;-60
2021/06/13 02:41:36;;;;;;;17.45;11.50;;;;;;;;;;1497616;39;20062;-61
2021/06/13 02:42:37;;;;;;;15.38;10.70;;;;;;;;;;1497358;39;20364;-61
2021/06/13 02:43:38;;;;;;;19.65;12.25;;;;;;;;;;1497636;39;20067;-61
2021/06/13 02:44:39;;;;;;;15.40;11.00;;;;;;;;;;1497598;39;20028;-61
2021/06/13 02:45:41;;;;;;;19.60;11.27;;;;;;;;;;1497467;39;20294;-61
2021/06/13 02:46:42;;;;;;;15.23;10.95;;;;;;;;;;1497308;39;20275;-61
2021/06/13 02:47:44;;;;;;;18.08;11.15;;;;;;;;;;1497460;39;20035;-60
2021/06/13 02:48:46;;;;;;;18.10;11.55;;;;;;;;;;1497603;39;20031;-61
2021/06/13 02:49:47;;;;;;;18.15;10.80;;;;;;;;;;1497346;39;20028;-60
2021/06/13 02:50:48;;;;;;;18.15;11.82;;;;;;;;;;1497379;39;20098;-61
2021/06/13 02:51:57;;;;;;;17.55;11.20;;;;;;;;;;1497411;39;20019;-61
2021/06/13 02:53:05;;;;;;;18.05;11.05;;;;;;;;;;1497531;39;20027;-61
2021/06/13 02:54:09;;;;;;;15.45;10.82;;;;;;;;;;1497581;39;20034;-60
2021/06/13 02:55:15;;;;;;;19.40;11.50;;;;;;;;;;1497575;39;20031;-60
2021/06/13 02:56:24;;;;;;;15.32;11.50;;;;;;;;;;1497597;39;20031;-61
2021/06/13 02:57:28;;;;;;;16.80;10.82;;;;;;;;;;1497371;39;20314;-61
2021/06/13 02:58:37;;;;;;;15.88;11.45;;;;;;;;;;1497355;39;20067;-61
2021/06/13 02:59:42;;;;;;;16.02;10.93;;;;;;;;;;1497310;39;20039;-60
2021/06/13 03:00:44;;;;;;;18.00;11.20;;;;;;;;;;1497571;39;20035;-60
2021/06/13 03:01:48;;;;;;;18.02;11.50;;;;;;;;;;1497581;39;20031;-60
2021/06/13 03:02:53;;;;;;;18.65;11.52;;;;;;;;;;1497446;39;20402;-61
2021/06/13 03:03:56;;;;;;;19.08;11.18;;;;;;;;;;1497306;39;20108;-60
2021/06/13 03:05:00;;;;;;;15.40;10.63;;;;;;;;;;1497239;39;20095;-61
2021/06/13 03:06:08;;;;;;;18.35;12.07;;;;;;;;;;1497270;39;20378;-60
2021/06/13 03:07:14;;;;;;;18.40;11.65;;;;;;;;;;1497253;39;20023;-61
2021/06/13 03:08:18;;;;;;;17.80;11.57;;;;;;;;;;1497494;39;20050;-61
2021/06/13 03:09:20;;;;;;;17.02;11.65;;;;;;;;;;1497540;39;20035;-60
2021/06/13 03:10:22;;;;;;;16.05;11.35;;;;;;;;;;1497460;39;20027;-60
2021/06/13 03:11:24;;;;;;;17.58;11.30;;;;;;;;;;1497519;39;20027;-61
2021/06/13 03:12:26;;;;;;;18.25;11.52;;;;;;;;;;1497310;39;20390;-61
2021/06/13 03:13:27;;;;;;;17.50;12.35;;;;;;;;;;1497588;39;20027;-61
2021/06/13 03:14:31;;;;;;;18.23;12.25;;;;;;;;;;1497478;39;20027;-63
2021/06/13 03:15:33;;;;;;;18.42;11.98;;;;;;;;;;1497338;39;20059;-61
2021/06/13 03:16:35;;;;;;;18.85;11.52;;;;;;;;;;1497358;39;20035;-60
2021/06/13 03:17:38;;;;;;;18.33;11.60;;;;;;;;;;1497533;39;20040;-62
2021/06/13 03:18:41;;;;;;;17.17;11.25;;;;;;;;;;1497246;39;20409;-62
2021/06/13 03:19:44;;;;;;;15.70;10.95;;;;;;;;;;1497341;39;20057;-60
2021/06/13 03:20:45;;;;;;;16.80;11.13;;;;;;;;;;1497398;39;20108;-60
2021/06/13 03:21:48;;;;;;;15.65;11.23;;;;;;;;;;1497520;39;20031;-61
2021/06/13 03:22:50;;;;;;;17.83;11.13;;;;;;;;;;1497406;39;20023;-61
2021/06/13 03:23:51;;;;;;;17.58;11.73;;;;;;;;;;1497239;39;20108;-61
2021/06/13 03:24:54;;;;;;;17.40;11.77;;;;;;;;;;1497473;39;20108;-60
2021/06/13 03:25:57;;;;;;;18.35;11.35;;;;;;;;;;1497259;39;20387;-60
2021/06/13 03:26:59;;;;;;;16.90;11.10;;;;;;;;;;1497416;39;20036;-60
2021/06/13 03:28:01;;;;;;;17.10;11.95;;;;;;;;;;1497241;39;20042;-61
2021/06/13 03:29:05;;;;;;;18.40;11.90;;;;;;;;;;1497430;39;20034;-61
2021/06/13 03:30:07;;;;;;;17.02;11.25;;;;;;;;;;1497281;39;20351;-60
2021/06/13 03:31:10;;;;;;;19.63;12.25;;;;;;;;;;1497357;39;20349;-60
2021/06/13 03:32:13;;;;;;;19.80;12.75;;;;;;;;;;1497229;39;20035;-61
2021/06/13 03:33:15;;;;;;;18.20;11.95;;;;;;;;;;1497266;39;20391;-60
2021/06/13 03:34:18;;;;;;;15.20;11.38;;;;;;;;;;1497191;39;20030;-60
2021/06/13 03:35:21;;;;;;;18.17;11.82;;;;;;;;;;1497198;39;20302;-60
2021/06/13 03:36:25;;;;;;;18.52;12.45;;;;;;;;;;1497393;39;20034;-61
2021/06/13 03:37:26;;;;;;;15.57;12.20;;;;;;;;;;1497405;39;20027;-61
2021/06/13 03:38:29;;;;;;;17.95;11.93;;;;;;;;;;1497345;39;20295;-60
2021/06/13 03:39:32;;;;;;;16.33;11.15;;;;;;;;;;1497242;39;20386;-60
2021/06/13 03:40:34;;;;;;;18.95;13.55;;;;;;;;;;1497249;39;20459;-61
2021/06/13 03:41:35;;;;;;;18.90;12.20;;;;;;;;;;1497464;39;20141;-60
2021/06/13 03:42:38;;;;;;;19.55;12.05;;;;;;;;;;1497480;39;20040;-60
2021/06/13 03:43:39;;;;;;;20.38;12.70;;;;;;;;;;1497283;39;20503;-60
2021/06/13 03:44:42;;;;;;;17.92;12.15;;;;;;;;;;1497320;39;20318;-61
2021/06/13 03:45:43;;;;;;;18.15;12.43;;;;;;;;;;1497503;39;20034;-61
2021/06/13 03:46:46;;;;;;;22.48;12.73;;;;;;;;;;1497167;39;20032;-60
2021/06/13 03:47:48;;;;;;;20.52;11.70;;;;;;;;;;1497099;39;20039;-60
2021/06/13 03:48:53;;;;;;;20.25;13.00;;;;;;;;;;1497448;39;20027;-60
2021/06/13 03:49:56;;;;;;;22.40;12.55;;;;;;;;;;1497199;39;20038;-61
2021/06/13 03:50:59;;;;;;;17.63;12.10;;;;;;;;;;1497268;39;20040;-60
2021/06/13 03:52:00;;;;;;;18.20;12.13;;;;;;;;;;1497198;39;20295;-60
2021/06/13 03:53:02;;;;;;;17.50;12.18;;;;;;;;;;1497244;39;20027;-61
2021/06/13 03:54:03;;;;;;;20.60;12.55;;;;;;;;;;1497205;39;20028;-61
2021/06/13 03:55:06;;;;;;;19.73;12.35;;;;;;;;;;1497298;39;20043;-60
2021/06/13 03:56:09;;;;;;;18.42;12.75;;;;;;;;;;1497130;39;20139;-61
2021/06/13 03:57:11;;;;;;;18.63;12.32;;;;;;;;;;1497421;39;20027;-61
2021/06/13 03:58:13;;;;;;;18.55;12.13;;;;;;;;;;1497286;39;20035;-61
2021/06/13 03:59:17;;;;;;;20.27;13.10;;;;;;;;;;1497391;39;20031;-61
2021/06/13 04:00:19;;;;;;;20.67;12.18;;;;;;;;;;1497236;39;20027;-60
2021/06/13 04:01:23;;;;;;;20.55;12.27;;;;;;;;;;1497294;39;20031;-60
2021/06/13 04:02:25;;;;;;;16.55;12.52;;;;;;;;;;1497380;39;20039;-60
2021/06/13 04:03:28;;;;;;;22.00;12.32;;;;;;;;;;1497226;39;20027;-61
2021/06/13 04:04:37;;;;;;;20.60;13.05;;;;;;;;;;1497219;39;20034;-60
2021/06/13 04:05:41;;;;;;;17.77;12.60;;;;;;;;;;1497494;39;20034;-61
2021/06/13 04:06:45;;;;;;;18.13;12.10;;;;;;;;;;1497224;39;20108;-60
2021/06/13 04:07:47;;;;;;;18.50;12.52;;;;;;;;;;1497265;39;20070;-60
2021/06/13 04:08:49;;;;;;;19.52;13.05;;;;;;;;;;1497270;39;20075;-61
2021/06/13 04:09:51;;;;;;;21.60;12.45;;;;;;;;;;1497259;39;20027;-62
2021/06/13 04:10:53;;;;;;;17.85;11.95;;;;;;;;;;1497233;39;20053;-61
2021/06/13 04:11:56;;;;;;;19.63;12.10;;;;;;;;;;1497112;39;20128;-61
2021/06/13 04:12:57;;;;;;;19.67;12.57;;;;;;;;;;1497218;39;20291;-61
2021/06/13 04:14:01;;;;;;;19.27;11.75;;;;;;;;;;1497193;39;20418;-61
2021/06/13 04:15:02;;;;;;;21.45;12.02;;;;;;;;;;1497325;39;20028;-60
2021/06/13 04:16:06;;;;;;;20.98;12.82;;;;;;;;;;1497461;39;20043;-61
2021/06/13 04:17:08;;;;;;;17.88;12.65;;;;;;;;;;1497367;39;20143;-62
2021/06/13 04:18:10;;;;;;;19.10;12.40;;;;;;;;;;1497062;39;20479;-62
2021/06/13 04:19:12;;;;;;;18.67;12.93;;;;;;;;;;1497312;39;20030;-62
2021/06/13 04:20:14;;;;;;;21.65;12.80;;;;;;;;;;1497167;39;20372;-60
2021/06/13 04:21:18;;;;;;;21.77;12.80;;;;;;;;;;1497269;39;20027;-62
2021/06/13 04:22:21;;;;;;;20.27;12.48;;;;;;;;;;1497421;39;20043;-61
2021/06/13 04:23:24;;;;;;;17.88;11.63;;;;;;;;;;1497058;39;20035;-61
2021/06/13 04:24:26;;;;;;;18.33;12.07;;;;;;;;;;1497160;39;20276;-61
2021/06/13 04:25:28;;;;;;;17.60;11.98;;;;;;;;;;1497254;39;20019;-61
2021/06/13 04:26:30;;;;;;;20.35;13.10;;;;;;;;;;1497076;39;20351;-61
2021/06/13 04:27:34;;;;;;;20.23;12.68;;;;;;;;;;1496964;39;20031;-62
2021/06/13 04:28:36;;;;;;;17.67;11.75;;;;;;;;;;1497375;39;20109;-62
2021/06/13 04:29:37;;;;;;;17.10;12.52;;;;;;;;;;1497122;39;20027;-62
2021/06/13 04:30:39;;;;;;;19.52;12.65;;;;;;;;;;1497394;39;20036;-61
2021/06/13 04:31:40;;;;;;;18.38;13.00;;;;;;;;;;1497148;39;20037;-61
2021/06/13 04:32:42;;;;;;;18.63;12.55;;;;;;;;;;1497300;39;20100;-61
2021/06/13 04:33:45;;;;;;;19.45;12.60;;;;;;;;;;1497062;39;20028;-61
2021/06/13 04:34:47;;;;;;;20.85;12.75;;;;;;;;;;1497388;39;20032;-61
2021/06/13 04:35:48;;;;;;;20.52;13.75;;;;;;;;;;1497262;39;20031;-61
2021/06/13 04:36:51;;;;;;;17.88;12.57;;;;;;;;;;1497106;39;20404;-61
2021/06/13 04:37:53;;;;;;;19.23;11.85;;;;;;;;;;1497187;39;20028;-62
2021/06/13 04:38:54;;;;;;;20.17;11.40;;;;;;;;;;1497272;39;20027;-61
2021/06/13 04:39:56;;;;;;;16.92;12.35;;;;;;;;;;1497383;39;20027;-61
2021/06/13 04:40:58;;;;;;;21.30;13.13;;;;;;;;;;1497278;39;20027;-61
2021/06/13 04:42:01;;;;;;;22.65;13.27;;;;;;;;;;1497216;39;20039;-62
2021/06/13 04:43:02;;;;;;;17.85;11.90;;;;;;;;;;1497224;39;20031;-61
2021/06/13 04:44:05;;;;;;;18.98;12.63;;;;;;;;;;1497164;39;20027;-61
2021/06/13 04:45:08;;;;;;;18.83;12.10;;;;;;;;;;1497052;39;20035;-60
2021/06/13 04:46:11;;;;;;;19.75;12.48;;;;;;;;;;1497110;39;20038;-62
2021/06/13 04:47:12;;;;;;;18.70;12.55;;;;;;;;;;1497040;39;20046;-61
2021/06/13 04:48:14;;;;;;;21.45;13.10;;;;;;;;;;1497041;39;20482;-61
2021/06/13 04:49:15;;;;;;;23.20;12.73;;;;;;;;;;1497039;39;20023;-62
2021/06/13 04:50:17;;;;;;;18.77;12.52;;;;;;;;;;1497012;39;20031;-61
2021/06/13 04:51:20;;;;;;;17.38;12.25;;;;;;;;;;1497123;39;20027;-60
2021/06/13 04:52:24;;;;;;;19.08;12.60;;;;;;;;;;1497197;39;20413;-61
2021/06/13 04:53:51;;;;;;;17.42;12.27;;;;;;;;;;1497239;39;20031;-62
2021/06/13 04:55:20;;;;;;;20.50;12.10;;;;;;;;;;1497066;39;20375;-62
2021/06/13 04:56:30;;;;;;;18.60;12.45;;;;;;;;;;1497062;39;20302;-61
2021/06/13 04:58:01;;;;;;;18.50;12.40;;;;;;;;;;1497190;39;20047;-61
2021/06/13 04:59:02;;;;;;;16.98;11.20;;;;;;;;;;1497238;39;20019;-61
2021/06/13 05:00:05;;;;;;;20.58;11.73;;;;;;;;;;1497062;39;20035;-62
2021/06/13 05:01:07;;;;;;;16.70;11.77;;;;;;;;;;1496887;39;20034;-61
2021/06/13 05:02:09;;;;;;;17.05;11.60;;;;;;;;;;1496938;39;20276;-63
2021/06/13 05:03:10;;;;;;;18.00;11.85;;;;;;;;;;1497235;39;20023;-63
2021/06/13 05:04:12;;;;;;;21.10;12.20;;;;;;;;;;1497183;39;20028;-63
2021/06/13 05:05:15;;;;;;;21.35;11.98;;;;;;;;;;1497307;39;20027;-63
2021/06/13 05:06:17;;;;;;;17.60;11.10;;;;;;;;;;1497002;39;20275;-61
2021/06/13 05:07:18;;;;;;;19.58;11.68;;;;;;;;;;1496939;39;20080;-62
2021/06/13 05:08:21;;;;;;;17.02;11.68;;;;;;;;;;1497232;39;20131;-61
2021/06/13 05:09:22;;;;;;;15.73;10.57;;;;;;;;;;1497003;39;20027;-62
2021/06/13 05:10:24;;;;;;;17.27;11.38;;;;;;;;;;1497227;39;20028;-61
2021/06/13 05:11:25;;;;;;;18.58;10.82;;;;;;;;;;1497293;39;20027;-62
2021/06/13 05:12:27;;;;;;;18.80;10.98;;;;;;;;;;1497182;39;20024;-63
2021/06/13 05:13:28;;;;;;;15.77;11.52;;;;;;;;;;1497157;39;20054;-63
2021/06/13 05:14:30;;;;;;;17.23;10.75;;;;;;;;;;1497259;39;20382;-62
2021/06/13 05:15:30;;;;;;;16.15;10.13;;;;;;;;;;1497142;39;20044;-61
2021/06/13 05:16:32;;;;;;;20.17;11.13;;;;;;;;;;1497107;39;20335;-63
2021/06/13 05:17:34;;;;;;;16.13;10.40;;;;;;;;;;1497105;39;20031;-61
2021/06/13 05:18:36;;;;;;;17.58;10.57;;;;;;;;;;1497045;39;20387;-63
2021/06/13 05:19:37;;;;;;;14.75;9.85;;;;;;;;;;1497084;39;20023;-63
2021/06/13 05:20:39;;;;;;;16.05;9.60;;;;;;;;;;1497235;39;20027;-63
2021/06/13 05:21:39;;;;;;;14.52;9.88;;;;;;;;;;1497295;39;20027;-63
2021/06/13 05:22:56;;;;;;;16.98;9.75;;;;;;;;;;1497030;39;20368;-63
2021/06/13 05:24:00;;;;;;;14.48;9.55;;;;;;;;;;1497048;39;20030;-62
2021/06/13 05:25:02;;;;;;;16.23;9.38;;;;;;;;;;1497017;39;20036;-63
2021/06/13 05:26:04;;;;;;;13.02;9.27;;;;;;;;;;1497104;39;20032;-63
2021/06/13 05:27:06;;;;;;;17.17;9.88;;;;;;;;;;1497021;39;20046;-63
2021/06/13 05:28:07;;;;;;;15.25;9.80;;;;;;;;;;1496970;39;20035;-62
2021/06/13 05:29:09;;;;;;;15.20;9.73;;;;;;;;;;1496905;39;20076;-63
2021/06/13 05:30:12;;;;;;;15.65;9.68;;;;;;;;;;1497272;39;20023;-63
2021/06/13 05:31:15;;;;;;;13.82;9.52;;;;;;;;;;1497258;39;20043;-62
2021/06/13 05:32:15;;;;;;;15.10;9.10;;;;;;;;;;1497227;39;20031;-63
2021/06/13 05:33:18;;;;;;;13.35;8.48;;;;;;;;;;1497259;39;20035;-62
2021/06/13 05:34:19;;;;;;;16.08;9.65;;;;;;;;;;1497158;39;20039;-61
2021/06/13 05:35:21;;;;;;;15.27;8.77;;;;;;;;;;1497225;39;20031;-63
2021/06/13 05:36:22;;;;;;;11.85;8.35;;;;;;;;;;1496960;39;20108;-62
2021/06/13 05:37:24;;;;;;;13.95;8.57;;;;;;;;;;1497179;39;20077;-62
2021/06/13 05:38:25;;;;;;;14.45;9.13;;;;;;;;;;1496948;39;20379;-63
2021/06/13 05:39:28;;;;;;;13.50;7.95;;;;;;;;;;1496984;39;20027;-63
2021/06/13 05:40:30;;;;;;;15.13;8.52;;;;;;;;;;1497188;39;20027;-61
2021/06/13 05:41:31;;;;;;;11.82;7.78;;;;;;;;;;1497101;39;20031;-62
2021/06/13 05:42:33;;;;;;;12.65;8.02;;;;;;;;;;1496996;39;20291;-63
2021/06/13 05:43:35;;;;;;;13.35;7.80;;;;;;;;;;1497080;39;20383;-63
2021/06/13 05:44:35;;;;;;;14.05;8.02;;;;;;;;;;1496831;39;20042;-62
2021/06/13 05:45:38;;;;;;;13.40;8.10;;;;;;;;;;1497151;39;20034;-63
2021/06/13 05:46:40;;;;;;;11.88;7.70;;;;;;;;;;1497108;39;20035;-63
2021/06/13 05:47:42;;;;;;;12.73;8.30;;;;;;;;;;1496897;39;20267;-61
2021/06/13 05:48:43;;;;;;;12.88;8.80;;;;;;;;;;1497041;39;20034;-61
2021/06/13 05:49:45;;;;;;;11.90;8.18;;;;;;;;;;1497146;39;20289;-63
2021/06/13 05:50:46;;;;;;;14.70;8.15;;;;;;;;;;1496845;39;20028;-62
2021/06/13 05:51:47;;;;;;;13.15;7.75;;;;;;;;;;1496906;39;20031;-63
2021/06/13 05:52:48;;;;;;;12.27;8.10;;;;;;;;;;1497129;39;20027;-63
2021/06/13 05:53:50;;;;;;;13.30;7.55;;;;;;;;;;1497249;39;20314;-63
2021/06/13 05:54:57;;;;;;;13.98;7.53;;;;;;;;;;1496856;39;20033;-62
2021/06/13 05:55:59;;;;;;;12.63;6.63;;;;;;;;;;1497054;39;20027;-63
2021/06/13 05:56:59;;;;;;;10.63;7.15;;;;;;;;;;1497042;39;20028;-62
2021/06/13 05:58:01;;;;;;;12.73;7.95;;;;;;;;;;1497037;39;20294;-62
2021/06/13 05:59:02;;;;;;;14.50;7.72;;;;;;;;;;1497131;39;20097;-61
2021/06/13 06:00:07;;;;;;;15.15;7.50;;;;;;;;;;1496952;39;20357;-62
2021/06/13 06:01:07;;;;;;;12.10;7.40;;;;;;;;;;1496700;39;20032;-62
2021/06/13 06:02:09;;;;;;;13.27;7.00;;;;;;;;;;1496862;39;20387;-63
2021/06/13 06:03:10;;;;;;;13.30;7.72;;;;;;;;;;1496881;39;20034;-62
2021/06/13 06:04:12;;;;;;;15.23;7.30;;;;;;;;;;1496827;39;20031;-63
2021/06/13 06:05:15;;;;;;;14.40;6.70;;;;;;;;;;1497052;39;20034;-62
2021/06/13 06:06:17;;;;;;;13.65;7.75;;;;;;;;;;1496892;39;20368;-62
2021/06/13 06:07:18;;;;;;;10.35;6.97;;;;;;;;;;1496807;39;20050;-63
2021/06/13 06:08:19;;;;;;;12.55;7.18;;;;;;;;;;1497025;39;20379;-61
2021/06/13 06:09:20;;;;;;;15.75;7.30;;;;;;;;;;1492166;39;20032;-61